Time;durP1;ratioP1;P1;durP2;ratioP2;P2;SDS_P1;SDS_P2;PMS_P1;PMS_P2;Temp;Humidity;BMP_temperature;BMP_pressure;BME280_temperature;BME280_humidity;BME280_pressure;Samples;Min_cycle;Max_cycle;Signal;HPM_P1;HPM_P2
2022/01/01 00:01:19;;;;;;;17.02;10.40;;;;;;;10.02;84.18;96508.22;1723131;82;21096;-80
2022/01/01 00:03:44;;;;;;;22.17;14.13;;;;;;;9.99;84.37;96513.27;1777869;80;22147;-82
2022/01/01 00:06:10;;;;;;;25.30;15.88;;;;;;;9.96;84.32;96516.72;1774544;80;20969;-81
2022/01/01 00:08:36;;;;;;;20.37;12.50;;;;;;;9.95;84.59;96525.48;1764452;80;20953;-82
2022/01/01 00:11:01;;;;;;;28.25;17.23;;;;;;;9.91;85.02;96529.70;1774998;80;22051;-82
2022/01/01 00:13:27;;;;;;;19.82;12.58;;;;;;;9.87;85.27;96519.36;1777057;80;21020;-82
2022/01/01 00:15:53;;;;;;;21.82;14.55;;;;;;;9.86;85.60;96532.51;1776276;80;21042;-82
2022/01/01 00:18:18;;;;;;;12.90;9.70;;;;;;;9.83;85.73;96540.64;1759822;80;21036;-82
2022/01/01 00:20:44;;;;;;;22.82;14.90;;;;;;;9.83;85.82;96541.95;1781770;80;20968;-82
2022/01/01 00:23:10;;;;;;;17.70;12.78;;;;;;;9.83;85.99;96548.44;1770912;80;20993;-82
2022/01/01 00:25:36;;;;;;;15.55;10.43;;;;;;;9.81;86.53;96549.10;1767505;80;21095;-82
2022/01/01 00:28:01;;;;;;;17.10;12.15;;;;;;;9.76;86.90;96545.73;1710444;84;21025;-82
2022/01/01 00:30:27;;;;;;;20.27;13.53;;;;;;;9.73;87.32;96549.94;1711787;83;20997;-82
2022/01/01 00:32:53;;;;;;;17.62;11.12;;;;;;;9.68;87.73;96547.55;1738022;81;21048;-81
2022/01/01 00:35:19;;;;;;;21.05;12.88;;;;;;;9.65;88.26;96555.69;1776703;80;21035;-83
2022/01/01 00:37:44;;;;;;;13.90;9.90;;;;;;;9.63;88.41;96548.08;1775786;80;21401;-82
2022/01/01 00:40:11;;;;;;;23.15;15.23;;;;;;;9.62;88.42;96551.16;1769325;80;20990;-82
2022/01/01 00:42:37;;;;;;;18.10;13.60;;;;;;;9.60;88.78;96547.94;1774641;80;20969;-82
2022/01/01 00:45:04;;;;;;;24.02;16.55;;;;;;;9.57;88.97;96544.36;1775292;80;20991;-82
2022/01/01 00:47:29;;;;;;;29.50;20.02;;;;;;;9.53;89.05;96553.47;1771894;80;21296;-82
2022/01/01 00:49:55;;;;;;;21.97;14.93;;;;;;;9.50;89.14;96547.83;1776836;80;20980;-82
2022/01/01 00:52:21;;;;;;;19.65;14.78;;;;;;;9.51;89.45;96555.92;1787241;80;20964;-82
2022/01/01 00:54:47;;;;;;;18.95;14.98;;;;;;;9.53;89.39;96556.06;1788261;80;21008;-82
2022/01/01 00:57:13;;;;;;;14.85;12.15;;;;;;;9.51;89.45;96555.44;1775667;80;20972;-82
2022/01/01 00:59:39;;;;;;;23.38;17.40;;;;;;;9.50;89.48;96557.71;1781156;80;21027;-82
2022/01/01 01:02:05;;;;;;;21.02;16.00;;;;;;;9.49;89.54;96562.58;1779754;80;21011;-82
2022/01/01 01:04:31;;;;;;;15.85;12.65;;;;;;;9.52;89.67;96567.91;1720424;83;21013;-82
2022/01/01 01:06:56;;;;;;;17.75;14.30;;;;;;;9.53;89.79;96569.53;1708556;83;21242;-81
2022/01/01 01:09:22;;;;;;;21.35;16.23;;;;;;;9.53;90.29;96572.92;1767863;80;21489;-82
2022/01/01 01:11:51;;;;;;;20.45;16.50;;;;;;;9.49;90.12;96578.64;1770159;80;21051;-82
2022/01/01 01:14:21;;;;;;;17.87;14.45;;;;;;;9.44;90.36;96579.64;1763823;80;21090;-82
2022/01/01 01:16:47;;;;;;;18.62;15.40;;;;;;;9.42;90.38;96588.05;1776317;80;21139;-82
2022/01/01 01:19:13;;;;;;;18.70;13.95;;;;;;;9.42;90.66;96593.23;1764457;80;21438;-82
2022/01/01 01:21:39;;;;;;;16.85;13.70;;;;;;;9.41;90.84;96592.44;1780078;80;21047;-82
2022/01/01 01:24:05;;;;;;;17.98;13.98;;;;;;;9.39;90.80;96590.98;1760222;80;20967;-82
2022/01/01 01:26:31;;;;;;;15.90;11.25;;;;;;;9.36;91.29;96593.92;1734698;80;20988;-82
2022/01/01 01:28:58;;;;;;;15.32;12.55;;;;;;;9.32;91.22;96592.16;1770636;80;20999;-82
2022/01/01 01:31:25;;;;;;;14.15;12.68;;;;;;;9.30;91.46;96594.13;1763910;80;21997;-82
2022/01/01 01:33:50;;;;;;;14.95;10.90;;;;;;;9.31;91.49;96599.63;1777183;80;21007;-82
2022/01/01 01:36:17;;;;;;;12.43;9.68;;;;;;;9.32;91.58;96597.35;1740862;80;21438;-82
2022/01/01 01:38:43;;;;;;;15.95;12.50;;;;;;;9.32;91.70;96601.24;1770762;80;20979;-82
2022/01/01 01:41:09;;;;;;;14.45;11.93;;;;;;;9.36;91.88;96599.92;1775297;80;21027;-82
2022/01/01 01:43:35;;;;;;;14.28;10.58;;;;;;;9.36;91.79;96594.73;1770476;80;20964;-82
2022/01/01 01:46:05;;;;;;;20.60;14.28;;;;;;;9.36;91.97;96606.89;1766253;80;20976;-82
2022/01/01 01:48:33;;;;;;;25.77;17.73;;;;;;;9.33;92.15;96607.55;1764385;80;21414;-82
2022/01/01 01:50:59;;;;;;;15.83;12.47;;;;;;;9.31;92.17;96616.48;1773004;80;21003;-82
2022/01/01 01:53:25;;;;;;;10.63;9.03;;;;;;;9.27;92.63;96622.50;1778583;80;21408;-82
2022/01/01 01:55:52;;;;;;;15.40;12.75;;;;;;;9.26;92.96;96631.22;1770858;80;21525;-82
2022/01/01 01:58:17;;;;;;;10.65;9.00;;;;;;;9.26;92.80;96637.70;1764673;80;21048;-82
2022/01/01 02:03:11;;;;;;;29.00;19.45;;;;;;;9.25;93.18;96639.98;1771741;80;21419;-82
2022/01/01 02:05:38;;;;;;;11.25;9.43;;;;;;;9.26;93.26;96649.86;1759793;80;21083;-82
2022/01/01 02:08:05;;;;;;;14.00;11.40;;;;;;;9.26;93.32;96647.27;1765176;80;21032;-82
2022/01/01 02:10:31;;;;;;;11.73;8.95;;;;;;;9.26;93.27;96647.27;1771087;80;21358;-82
2022/01/01 02:12:58;;;;;;;11.30;9.33;;;;;;;9.25;93.84;96647.76;1733568;80;21051;-82
2022/01/01 02:15:59;;;;;;;15.55;11.20;;;;;;;9.26;93.62;96656.34;1763558;80;21087;-82
2022/01/01 02:18:10;;;;;;;15.63;12.55;;;;;;;9.26;93.77;96661.53;1763693;80;21023;-82
2022/01/01 02:20:36;;;;;;;8.10;6.22;;;;;;;9.24;94.28;96666.08;1762771;80;20999;-82
2022/01/01 02:23:02;;;;;;;10.53;7.85;;;;;;;9.23;94.13;96665.76;1765290;80;21059;-82
2022/01/01 02:25:28;;;;;;;9.40;6.35;;;;;;;9.22;94.47;96659.77;1776871;80;21027;-82
2022/01/01 02:27:54;;;;;;;12.88;8.20;;;;;;;9.21;94.55;96661.23;1768728;80;20948;-82
2022/01/01 02:30:20;;;;;;;11.33;8.13;;;;;;;9.21;94.61;96666.41;1770164;80;21020;-83
2022/01/01 02:32:46;;;;;;;8.15;6.33;;;;;;;9.20;94.66;96670.80;1775580;80;21000;-82
2022/01/01 02:35:14;;;;;;;10.63;8.40;;;;;;;9.21;94.94;96678.08;1780337;80;21011;-82
2022/01/01 02:37:40;;;;;;;6.83;5.22;;;;;;;9.20;94.84;96677.27;1772823;80;21067;-82
2022/01/01 02:40:07;;;;;;;9.13;7.83;;;;;;;9.21;95.24;96689.27;1764227;80;21048;-82
2022/01/01 02:42:33;;;;;;;13.03;8.98;;;;;;;9.21;95.05;96687.96;1762388;80;21095;-82
2022/01/01 02:45:01;;;;;;;9.35;7.83;;;;;;;9.24;95.02;96690.22;1767267;80;21110;-83
2022/01/01 02:47:26;;;;;;;10.72;7.35;;;;;;;9.26;95.36;96694.75;1757543;80;21510;-82
2022/01/01 02:49:52;;;;;;;12.18;8.18;;;;;;;9.27;95.14;96698.98;1759867;80;21095;-82
2022/01/01 02:52:18;;;;;;;12.55;9.93;;;;;;;9.29;95.12;96701.41;1730112;80;20980;-82
2022/01/01 02:54:44;;;;;;;15.63;10.70;;;;;;;9.30;95.31;96710.32;1752959;80;21431;-82
2022/01/01 02:57:09;;;;;;;10.75;8.15;;;;;;;9.29;95.26;96715.67;1771362;80;21030;-83
2022/01/01 02:59:35;;;;;;;8.93;6.08;;;;;;;9.27;95.51;96708.52;1758201;80;21341;-82
2022/01/01 03:02:01;;;;;;;13.55;10.28;;;;;;;9.26;95.66;96714.69;1766083;80;21351;-82
2022/01/01 03:04:28;;;;;;;25.92;16.60;;;;;;;9.26;95.59;96719.87;1761720;80;21099;-82
2022/01/01 03:06:55;;;;;;;20.95;14.45;;;;;;;9.26;95.91;96717.28;1749145;80;21059;-82
2022/01/01 03:09:24;;;;;;;25.80;23.20;;;;;;;9.24;96.13;96718.73;1764743;80;21059;-83
2022/01/01 03:11:51;;;;;;;13.60;12.20;;;;;;;9.26;95.90;96712.09;1757443;80;21046;-82
2022/01/01 03:14:17;;;;;;;15.03;13.53;;;;;;;9.27;95.97;96706.77;1760556;80;21485;-83
2022/01/01 03:16:45;;;;;;;18.87;17.05;;;;;;;9.29;96.00;96713.08;1760857;80;21003;-81
2022/01/01 03:19:11;;;;;;;12.58;11.28;;;;;;;9.31;96.10;96713.23;1759541;80;20979;-82
2022/01/01 03:21:36;;;;;;;9.80;8.20;;;;;;;9.35;95.93;96723.27;1752866;80;21211;-82
2022/01/01 03:24:03;;;;;;;9.38;8.40;;;;;;;9.35;95.96;96715.00;1773651;80;20979;-82
2022/01/01 03:26:30;;;;;;;23.05;20.77;;;;;;;9.36;96.02;96719.70;1760915;80;20994;-82
2022/01/01 03:28:55;;;;;;;14.45;13.00;;;;;;;9.33;96.30;96724.73;1757209;80;21044;-82
2022/01/01 03:31:24;;;;;;;9.98;8.98;;;;;;;9.30;96.01;96719.40;1748341;80;21005;-83
2022/01/01 03:33:49;;;;;;;12.98;11.68;;;;;;;9.32;96.26;96728.31;1770227;80;21023;-82
2022/01/01 03:36:15;;;;;;;18.30;16.55;;;;;;;9.30;95.91;96732.36;1761585;80;21343;-83
2022/01/01 03:38:41;;;;;;;10.85;8.45;;;;;;;9.30;95.98;96723.29;1763078;80;20956;-83
2022/01/01 03:41:06;;;;;;;14.43;13.03;;;;;;;9.29;96.11;96728.64;1743963;80;20983;-83
2022/01/01 03:43:32;;;;;;;10.72;9.60;;;;;;;9.29;96.04;96730.75;1756119;80;21000;-82
2022/01/01 03:45:58;;;;;;;8.70;7.75;;;;;;;9.30;96.20;96741.92;1767792;80;21051;-82
2022/01/01 03:48:24;;;;;;;10.20;9.00;;;;;;;9.31;96.12;96741.77;1767371;80;20983;-82
2022/01/01 03:50:49;;;;;;;10.25;8.75;;;;;;;9.32;96.24;96743.38;1771567;80;21014;-82
2022/01/01 03:53:16;;;;;;;9.48;8.38;;;;;;;9.34;96.07;96739.31;1771873;80;21377;-82
2022/01/01 03:55:42;;;;;;;10.38;9.18;;;;;;;9.33;96.07;96744.99;1771609;80;20983;-83
2022/01/01 03:58:08;;;;;;;9.35;8.18;;;;;;;9.35;96.21;96745.31;1768020;80;21337;-82
2022/01/01 04:00:34;;;;;;;8.43;6.72;;;;;;;9.31;96.23;96744.84;1742492;80;20976;-83
2022/01/01 04:03:07;;;;;;;8.08;7.28;;;;;;;9.31;96.30;96752.13;1768297;80;20972;-82
2022/01/01 04:05:35;;;;;;;11.68;7.03;;;;;;;9.31;96.13;96751.33;1768503;80;20987;-83
2022/01/01 04:08:03;;;;;;;8.98;6.85;;;;;;;9.30;96.10;96758.30;1767793;80;21026;-82
2022/01/01 04:10:30;;;;;;;8.08;6.17;;;;;;;9.32;96.26;96760.72;1776734;80;21003;-82
2022/01/01 04:12:56;;;;;;;8.98;7.00;;;;;;;9.32;96.26;96766.72;1775864;80;21413;-82
2022/01/01 04:15:22;;;;;;;8.00;6.05;;;;;;;9.35;96.26;96762.98;1776571;80;21011;-82
2022/01/01 04:17:48;;;;;;;7.58;6.72;;;;;;;9.35;96.15;96762.17;1765774;79;20991;-82
2022/01/01 04:20:14;;;;;;;7.87;6.92;;;;;;;9.37;96.46;96761.52;1766574;80;20983;-81
2022/01/01 04:22:40;;;;;;;8.10;7.28;;;;;;;9.36;96.37;96763.79;1768554;79;21401;-82
2022/01/01 04:25:06;;;;;;;8.63;7.05;;;;;;;9.35;96.34;96764.77;1774868;80;20968;-83
2022/01/01 04:27:32;;;;;;;9.45;7.25;;;;;;;9.33;96.30;96771.41;1768465;80;20947;-83
2022/01/01 04:29:58;;;;;;;8.33;6.90;;;;;;;9.34;96.26;96771.73;1771988;80;21034;-83
2022/01/01 04:32:23;;;;;;;8.58;7.42;;;;;;;9.35;96.41;96773.35;1737690;80;21069;-83
2022/01/01 04:34:50;;;;;;;8.18;7.37;;;;;;;9.35;96.36;96769.46;1745797;80;20972;-83
2022/01/01 04:37:19;;;;;;;8.78;7.67;;;;;;;9.36;96.36;96774.16;1770258;80;21431;-83
2022/01/01 04:39:43;;;;;;;6.42;5.45;;;;;;;9.33;96.45;96767.03;1769105;80;21067;-83
2022/01/01 04:42:09;;;;;;;7.55;5.75;;;;;;;9.31;96.56;96764.29;1764367;80;21446;-82
2022/01/01 04:44:35;;;;;;;10.00;7.95;;;;;;;9.31;96.82;96766.39;1777834;80;21015;-83
2022/01/01 04:47:01;;;;;;;8.45;7.53;;;;;;;9.30;96.74;96767.38;1771915;80;21038;-83
2022/01/01 04:49:27;;;;;;;8.03;7.22;;;;;;;9.31;96.61;96766.88;1771045;80;21003;-82
2022/01/01 04:51:53;;;;;;;9.38;7.90;;;;;;;9.33;96.64;96766.23;1768882;80;21062;-82
2022/01/01 04:54:19;;;;;;;7.62;6.85;;;;;;;9.37;96.60;96764.92;1774717;80;20984;-83
2022/01/01 04:56:47;;;;;;;9.53;8.48;;;;;;;9.35;96.61;96766.88;1767699;79;20973;-83
2022/01/01 04:59:13;;;;;;;8.38;7.58;;;;;;;9.36;97.33;96767.68;1745752;80;21019;-83
2022/01/01 05:01:41;;;;;;;9.80;8.90;;;;;;;9.31;96.77;96762.99;1736997;80;21394;-83
2022/01/01 05:04:08;;;;;;;8.03;7.22;;;;;;;9.29;96.64;96763.16;1682115;83;20976;-83
2022/01/01 05:06:33;;;;;;;7.28;6.67;;;;;;;9.28;96.82;96761.55;1735502;82;21028;-82
2022/01/01 05:08:59;;;;;;;5.62;4.97;;;;;;;9.29;96.83;96773.53;1723783;83;20998;-83
2022/01/01 05:11:25;;;;;;;5.05;3.83;;;;;;;9.31;96.92;96765.10;1737220;82;21051;-82
2022/01/01 05:13:51;;;;;;;4.37;3.85;;;;;;;9.30;96.91;96774.34;1715905;82;21039;-82
2022/01/01 05:16:18;;;;;;;4.30;3.90;;;;;;;9.28;97.00;96775.00;1689577;83;21051;-83
2022/01/01 05:18:45;;;;;;;5.22;4.30;;;;;;;9.29;97.09;96777.91;1735893;81;21060;-83
2022/01/01 05:21:11;;;;;;;5.45;4.42;;;;;;;9.28;97.25;96774.51;1735939;81;21033;-83
2022/01/01 05:23:37;;;;;;;5.37;4.42;;;;;;;9.28;97.10;96776.30;1744520;81;21392;-83
2022/01/01 05:26:03;;;;;;;5.40;4.47;;;;;;;9.29;97.28;96776.61;1720877;82;20984;-82
2022/01/01 05:28:30;;;;;;;6.55;5.22;;;;;;;9.27;97.18;96781.97;1736967;81;21341;-82
2022/01/01 05:30:56;;;;;;;6.17;4.58;;;;;;;9.30;97.43;96782.93;1733553;81;21112;-82
2022/01/01 05:33:21;;;;;;;6.28;5.20;;;;;;;9.30;97.53;96785.52;1735291;81;21036;-83
2022/01/01 05:35:47;;;;;;;8.10;7.20;;;;;;;9.29;97.49;96780.02;1744726;81;21264;-83
2022/01/01 05:38:13;;;;;;;7.28;6.53;;;;;;;9.29;97.51;96790.39;1732378;81;20953;-83
2022/01/01 05:40:39;;;;;;;7.37;5.95;;;;;;;9.29;97.70;96787.80;1732710;81;20967;-82
2022/01/01 05:43:12;;;;;;;6.37;5.42;;;;;;;9.31;97.59;96798.00;1734653;81;21438;-83
2022/01/01 05:45:33;;;;;;;5.50;4.90;;;;;;;9.33;97.63;96810.31;1733562;81;21009;-82
2022/01/01 05:47:58;;;;;;;6.08;4.95;;;;;;;9.33;97.63;96806.42;1726503;81;21042;-82
2022/01/01 05:50:24;;;;;;;6.12;3.90;;;;;;;9.35;97.47;96806.26;1735803;81;21042;-82
2022/01/01 05:52:50;;;;;;;4.30;3.90;;;;;;;9.36;97.41;96806.58;1739201;81;21019;-82
2022/01/01 05:55:16;;;;;;;5.17;4.17;;;;;;;9.35;97.51;96817.44;1704241;81;21603;-83
2022/01/01 05:57:42;;;;;;;5.00;4.50;;;;;;;9.32;97.66;96825.06;1734829;81;20990;-82
2022/01/01 06:00:09;;;;;;;6.60;5.92;;;;;;;9.30;97.78;96824.42;1739059;80;20989;-83
2022/01/01 06:02:42;;;;;;;6.47;5.40;;;;;;;9.31;97.93;96822.64;1710740;83;21035;-82
2022/01/01 06:05:08;;;;;;;5.62;4.95;;;;;;;9.26;97.78;96823.10;1744813;81;21403;-82
2022/01/01 06:07:34;;;;;;;6.95;6.25;;;;;;;9.24;97.91;96820.35;1721730;82;20997;-82
2022/01/01 06:09:59;;;;;;;6.70;5.70;;;;;;;9.27;98.34;96827.80;1771278;80;21371;-81
2022/01/01 06:12:26;;;;;;;6.12;5.20;;;;;;;9.27;98.19;96830.39;1767961;80;20992;-82
2022/01/01 06:14:52;;;;;;;7.17;6.10;;;;;;;9.28;98.03;96836.74;1775313;80;20971;-82
2022/01/01 06:17:17;;;;;;;8.60;7.67;;;;;;;9.30;97.91;96830.91;1763785;80;20996;-82
2022/01/01 06:19:43;;;;;;;7.72;5.75;;;;;;;9.33;97.96;96846.63;1747339;80;21019;-82
2022/01/01 06:22:09;;;;;;;7.00;6.22;;;;;;;9.35;97.82;96850.34;1770325;80;20992;-82
2022/01/01 06:24:34;;;;;;;6.08;5.25;;;;;;;9.36;97.92;96854.07;1767174;80;20989;-82
2022/01/01 06:27:00;;;;;;;7.05;5.97;;;;;;;9.35;98.06;96849.86;1761907;80;21451;-82
2022/01/01 06:29:26;;;;;;;5.12;4.62;;;;;;;9.32;98.06;96860.56;1710814;83;21064;-82
2022/01/01 06:31:52;;;;;;;10.85;5.47;;;;;;;9.33;98.05;96861.70;1775625;80;21044;-82
2022/01/01 06:34:17;;;;;;;5.87;4.87;;;;;;;9.35;98.06;96865.42;1769569;80;20981;-82
2022/01/01 06:36:43;;;;;;;5.08;4.00;;;;;;;9.36;98.01;96872.23;1769548;80;21000;-82
2022/01/01 06:39:09;;;;;;;6.62;5.25;;;;;;;9.37;97.96;96871.25;1740379;80;21007;-82
2022/01/01 06:41:35;;;;;;;5.20;4.17;;;;;;;9.38;97.82;96874.66;1772552;80;21042;-82
2022/01/01 06:44:00;;;;;;;4.85;3.90;;;;;;;9.39;97.86;96873.68;1771836;80;20976;-82
2022/01/01 06:46:26;;;;;;;6.70;5.28;;;;;;;9.41;97.92;96876.43;1770341;80;21019;-81
2022/01/01 06:48:52;;;;;;;6.95;5.47;;;;;;;9.43;97.85;96885.34;1761904;80;21374;-82
2022/01/01 06:51:18;;;;;;;7.00;6.30;;;;;;;9.43;98.00;96883.56;1766053;80;21115;-82
2022/01/01 06:53:44;;;;;;;6.90;6.03;;;;;;;9.43;97.77;96878.38;1737232;81;21059;-82
2022/01/01 06:56:11;;;;;;;8.60;7.65;;;;;;;9.42;98.17;96870.75;1759035;80;21425;-82
2022/01/01 06:58:37;;;;;;;6.20;5.60;;;;;;;9.37;98.00;96880.33;1748269;80;21011;-82
2022/01/01 07:01:04;;;;;;;8.48;7.50;;;;;;;9.34;97.94;96880.66;1739057;80;20996;-82
2022/01/01 07:03:29;;;;;;;7.15;5.97;;;;;;;9.36;98.07;96879.20;1765461;80;20985;-82
2022/01/01 07:05:55;;;;;;;6.53;5.58;;;;;;;9.36;98.08;96889.08;1772812;80;20976;-82
2022/01/01 07:08:21;;;;;;;6.40;5.40;;;;;;;9.36;98.17;96890.38;1777358;80;21092;-82
2022/01/01 07:10:46;;;;;;;5.58;5.08;;;;;;;9.36;98.27;96896.86;1777482;80;20971;-82
2022/01/01 07:13:13;;;;;;;5.60;5.05;;;;;;;9.35;98.25;96889.25;1768658;80;20983;-82
2022/01/01 07:15:39;;;;;;;6.58;5.53;;;;;;;9.35;98.40;96893.95;1771385;80;21413;-82
2022/01/01 07:18:05;;;;;;;5.97;4.55;;;;;;;9.37;98.30;96898.97;1767409;79;20991;-82
2022/01/01 07:20:30;;;;;;;6.30;5.70;;;;;;;9.38;98.46;96903.99;1763295;80;21027;-82
2022/01/01 07:22:56;;;;;;;5.85;4.75;;;;;;;9.39;98.42;96909.98;1769694;80;20976;-82
2022/01/01 07:25:22;;;;;;;5.37;4.72;;;;;;;9.39;98.64;96904.31;1774449;80;20982;-82
2022/01/01 07:27:47;;;;;;;6.33;5.72;;;;;;;9.41;98.57;96916.63;1766105;80;20937;-82
2022/01/01 07:30:15;;;;;;;6.53;5.35;;;;;;;9.42;98.55;96907.88;1771098;80;21000;-82
2022/01/01 07:32:46;;;;;;;8.08;6.85;;;;;;;9.44;98.46;96924.12;1771768;80;21007;-82
2022/01/01 07:35:13;;;;;;;6.75;5.70;;;;;;;9.46;98.56;96921.36;1775586;80;20976;-82
2022/01/01 07:37:39;;;;;;;5.85;5.25;;;;;;;9.45;98.56;96921.03;1772525;80;20991;-81
2022/01/01 07:40:09;;;;;;;7.92;6.70;;;;;;;9.41;98.82;96920.52;1766386;80;20972;-82
2022/01/01 07:42:34;;;;;;;6.08;5.47;;;;;;;9.41;98.61;96917.93;1766655;80;20977;-82
2022/01/01 07:45:01;;;;;;;8.25;7.17;;;;;;;9.43;98.66;96921.17;1771705;80;20984;-82
2022/01/01 07:47:27;;;;;;;8.95;7.40;;;;;;;9.43;98.60;96921.66;1763746;80;21204;-82
2022/01/01 07:49:53;;;;;;;7.20;5.33;;;;;;;9.43;98.57;96914.69;1764546;80;21511;-82
2022/01/01 07:52:19;;;;;;;6.53;5.70;;;;;;;9.45;98.57;96916.66;1769337;80;21075;-82
2022/01/01 07:54:44;;;;;;;6.08;5.25;;;;;;;9.50;98.61;96912.28;1755734;80;21059;-82
2022/01/01 07:57:10;;;;;;;7.45;6.75;;;;;;;9.53;98.63;96916.64;1766370;80;21064;-82
2022/01/01 07:59:36;;;;;;;8.35;6.95;;;;;;;9.56;98.62;96914.21;1778642;80;21548;-82
2022/01/01 08:02:02;;;;;;;9.28;8.13;;;;;;;9.54;98.58;96916.16;1769819;80;21023;-82
2022/01/01 08:04:28;;;;;;;7.55;6.67;;;;;;;9.52;98.88;96915.02;1756241;80;21411;-82
2022/01/01 08:06:54;;;;;;;8.75;6.28;;;;;;;9.50;98.77;96922.65;1767093;80;21052;-82
2022/01/01 08:09:19;;;;;;;7.05;6.08;;;;;;;9.51;98.62;96926.87;1760166;80;21008;-82
2022/01/01 08:11:45;;;;;;;6.58;5.85;;;;;;;9.50;98.72;96933.03;1762838;80;21445;-82
2022/01/01 08:14:11;;;;;;;9.23;6.05;;;;;;;9.50;98.80;96927.35;1758251;80;21027;-82
2022/01/01 08:17:01;;;;;;;6.12;5.00;;;;;;;9.51;98.77;96936.75;1767483;80;20997;-82
2022/01/01 08:19:27;;;;;;;5.03;4.50;;;;;;;9.53;98.76;96936.59;1759428;80;20994;-82
2022/01/01 08:21:53;;;;;;;9.63;8.83;;;;;;;9.56;98.91;96942.26;1761232;80;21382;-82
2022/01/01 08:24:20;;;;;;;7.47;6.78;;;;;;;9.54;99.02;96948.10;1768826;80;21023;-82
2022/01/01 08:26:46;;;;;;;8.25;7.45;;;;;;;9.53;98.91;96954.75;1761425;80;21335;-82
2022/01/01 08:29:12;;;;;;;8.80;7.22;;;;;;;9.50;99.11;96952.48;1766990;80;20967;-83
2022/01/01 08:31:38;;;;;;;7.58;6.78;;;;;;;9.47;99.08;96958.00;1741129;80;20996;-83
2022/01/01 08:34:04;;;;;;;8.75;6.53;;;;;;;9.47;99.13;96956.70;1770360;80;21047;-82
2022/01/01 08:36:30;;;;;;;8.08;7.22;;;;;;;9.46;99.02;96964.16;1772386;80;21044;-82
2022/01/01 08:38:55;;;;;;;7.58;6.78;;;;;;;9.47;99.05;96967.89;1763856;80;21403;-82
2022/01/01 08:41:21;;;;;;;16.87;10.80;;;;;;;9.49;99.03;96959.94;1764540;80;20961;-83
2022/01/01 08:43:47;;;;;;;10.72;8.18;;;;;;;9.48;98.89;96969.99;1760835;80;20950;-82
2022/01/01 08:46:12;;;;;;;19.17;11.03;;;;;;;9.49;98.93;96961.23;1757855;80;22253;-83
2022/01/01 08:48:40;;;;;;;12.90;9.65;;;;;;;9.49;98.86;96971.12;1769810;80;20956;-82
2022/01/01 08:51:17;;;;;;;66.05;34.88;;;;;;;9.52;98.95;96979.07;1768326;80;21378;-81
2022/01/01 08:53:44;;;;;;;15.40;11.08;;;;;;;9.51;98.93;96977.45;1762415;80;21004;-82
2022/01/01 08:56:10;;;;;;;50.15;20.90;;;;;;;9.50;99.23;96975.83;1765956;80;20968;-81
2022/01/01 08:58:36;;;;;;;22.80;12.55;;;;;;;9.50;99.27;96979.23;1768169;80;20995;-82
2022/01/01 09:01:03;;;;;;;35.65;14.95;;;;;;;9.52;99.29;96969.99;1765133;80;22373;-82
2022/01/01 09:03:29;;;;;;;15.78;9.33;;;;;;;9.53;99.33;96968.53;1773303;80;21023;-82
2022/01/01 09:05:54;;;;;;;14.43;7.87;;;;;;;9.52;99.24;96973.39;1765214;80;20913;-82
2022/01/01 09:08:20;;;;;;;11.63;10.23;;;;;;;9.53;99.47;96975.02;1762190;80;21358;-81
2022/01/01 09:10:46;;;;;;;139.85;48.28;;;;;;;9.53;99.27;96978.91;1760498;80;20971;-81
2022/01/01 09:13:12;;;;;;;36.63;15.85;;;;;;;9.52;99.33;96995.45;1779842;80;20991;-81
2022/01/01 09:15:37;;;;;;;24.35;11.90;;;;;;;9.50;99.31;96978.42;1770379;80;20948;-81
2022/01/01 09:18:03;;;;;;;27.87;13.62;;;;;;;9.51;99.21;96993.02;1777486;80;21311;-82
2022/01/01 09:20:29;;;;;;;9.75;7.55;;;;;;;9.49;99.22;96989.29;1771004;80;20972;-81
2022/01/01 09:22:54;;;;;;;13.35;9.23;;;;;;;9.49;99.32;96995.77;1771337;80;21035;-81
2022/01/01 09:25:20;;;;;;;90.07;39.73;;;;;;;9.50;99.10;97007.77;1771340;80;22455;-81
2022/01/01 09:27:46;;;;;;;58.40;24.02;;;;;;;9.50;99.16;97011.66;1763812;80;20973;-81
2022/01/01 09:30:12;;;;;;;14.55;9.20;;;;;;;9.51;99.10;97013.28;1767721;80;21006;-81
2022/01/01 09:32:38;;;;;;;13.53;8.05;;;;;;;9.49;99.17;97012.63;1766906;80;20961;-81
2022/01/01 09:35:04;;;;;;;28.70;15.75;;;;;;;9.47;99.19;97010.69;1765582;80;21296;-81
2022/01/01 09:37:32;;;;;;;9.80;7.72;;;;;;;9.48;99.21;97011.02;1732150;80;21523;-81
2022/01/01 09:39:58;;;;;;;23.30;14.63;;;;;;;9.48;99.38;97010.20;1766477;80;21042;-81
2022/01/01 09:42:23;;;;;;;86.12;30.37;;;;;;;9.47;99.32;97009.88;1766372;80;21389;-81
2022/01/01 09:44:54;;;;;;;28.87;13.68;;;;;;;9.44;99.43;97020.58;1768520;80;20906;-81
2022/01/01 09:47:20;;;;;;;29.23;13.35;;;;;;;9.41;99.44;97023.46;1764239;80;21010;-82
2022/01/01 09:49:46;;;;;;;16.10;9.80;;;;;;;9.41;99.47;97024.27;1744689;80;20992;-81
2022/01/01 09:52:14;;;;;;;9.98;7.47;;;;;;;9.41;99.35;97024.27;1755049;80;20988;-81
2022/01/01 09:54:41;;;;;;;11.30;7.53;;;;;;;9.41;99.51;97019.57;1726799;80;20948;-81
2022/01/01 09:57:10;;;;;;;9.70;6.85;;;;;;;9.42;99.40;97021.19;1756398;80;21015;-81
2022/01/01 09:59:36;;;;;;;13.78;10.00;;;;;;;9.43;99.44;97018.92;1760001;80;21008;-81
2022/01/01 10:02:02;;;;;;;12.68;8.35;;;;;;;9.43;99.29;97013.25;1711056;81;20994;-81
2022/01/01 10:04:28;;;;;;;21.65;12.45;;;;;;;9.45;99.32;97016.52;1731823;80;20928;-82
2022/01/01 10:07:02;;;;;;;11.95;8.75;;;;;;;9.47;99.35;97014.58;1713689;80;21544;-81
2022/01/01 10:09:32;;;;;;;12.13;10.05;;;;;;;9.47;99.30;97009.88;1752827;80;20920;-82
2022/01/01 10:11:59;;;;;;;28.98;16.20;;;;;;;9.49;99.41;97007.93;1754280;80;20956;-81
2022/01/01 10:14:40;;;;;;;172.90;104.17;;;;;;;9.50;99.28;97003.88;1760166;80;20976;-81
2022/01/01 10:17:21;;;;;;;174.87;108.57;;;;;;;9.52;99.25;96998.04;1756587;80;21438;-81
2022/01/01 10:19:51;;;;;;;96.80;43.28;;;;;;;9.52;99.21;96999.83;1755799;80;21029;-81
2022/01/01 10:22:22;;;;;;;246.50;79.58;;;;;;;9.51;99.30;96995.12;1756107;80;21059;-81
2022/01/01 10:27:43;;;;;;;136.52;49.27;;;;;;;9.57;99.39;96999.66;1756308;80;21431;-81
2022/01/01 10:30:35;;;;;;;103.12;41.75;;;;;;;9.59;99.08;96991.72;1769367;80;20920;-81
2022/01/01 10:33:15;;;;;;;81.70;32.13;;;;;;;9.58;98.83;96995.28;1766304;80;20980;-81
2022/01/01 10:35:50;;;;;;;105.87;37.53;;;;;;;9.58;98.82;96991.39;1773014;80;20949;-79
2022/01/01 10:38:26;;;;;;;65.15;26.95;;;;;;;9.60;98.98;96994.66;1761705;80;21028;-82
2022/01/01 10:41:07;;;;;;;70.60;28.00;;;;;;;9.61;98.83;97000.98;1761381;80;21004;-82
2022/01/01 10:43:42;;;;;;;44.13;21.70;;;;;;;9.66;99.21;97005.69;1765747;80;21088;-82
2022/01/01 10:46:19;;;;;;;50.28;23.07;;;;;;;9.66;98.84;97012.17;1770475;80;21599;-82
2022/01/01 10:51:13;;;;;;;35.92;22.77;;;;;;;9.62;98.66;97012.17;1770076;80;21067;-81
2022/01/01 10:53:39;;;;;;;16.85;12.98;;;;;;;9.61;98.73;97015.74;1772027;80;21422;-82
2022/01/01 10:56:18;;;;;;;31.60;15.63;;;;;;;9.63;98.74;97015.09;1774930;80;21110;-85
2022/01/01 10:58:43;;;;;;;70.47;26.52;;;;;;;9.66;98.69;97013.47;1773654;80;20995;-83
2022/01/01 11:01:09;;;;;;;33.53;22.20;;;;;;;9.69;98.58;97011.03;1762913;80;21003;-83
2022/01/01 11:03:45;;;;;;;25.82;14.68;;;;;;;9.72;98.58;97017.20;1768166;80;20952;-83
2022/01/01 11:06:17;;;;;;;71.95;32.15;;;;;;;9.73;98.43;97009.73;1766873;80;21066;-83
2022/01/01 11:08:46;;;;;;;47.78;22.75;;;;;;;9.76;98.65;97008.11;1743069;80;20983;-83
2022/01/01 11:11:13;;;;;;;34.98;19.02;;;;;;;9.77;98.51;97015.77;1770156;80;20965;-83
2022/01/01 11:13:39;;;;;;;42.17;26.10;;;;;;;9.77;98.46;97017.06;1770629;80;21015;-83
2022/01/01 11:16:05;;;;;;;34.78;18.30;;;;;;;9.77;98.31;97011.88;1763993;80;20972;-83
2022/01/01 11:18:32;;;;;;;20.85;15.18;;;;;;;9.79;98.24;97003.92;1776826;80;21350;-83
2022/01/01 11:21:00;;;;;;;26.10;22.52;;;;;;;9.78;97.97;97010.89;1737029;80;20999;-83
2022/01/01 11:23:26;;;;;;;25.45;22.65;;;;;;;9.80;97.89;97013.33;1766384;80;21392;-85
2022/01/01 11:25:54;;;;;;;19.73;17.20;;;;;;;9.82;97.96;97013.97;1766319;80;20988;-86
2022/01/01 11:28:21;;;;;;;17.95;13.50;;;;;;;9.82;97.67;97013.48;1762991;80;21371;-87
2022/01/01 11:31:01;;;;;;;19.20;13.18;;;;;;;9.82;97.65;97010.08;1771894;80;21019;-87
2022/01/01 11:33:32;;;;;;;16.00;12.95;;;;;;;9.81;97.24;97000.67;1773044;79;20988;-85
2022/01/01 11:35:59;;;;;;;16.50;13.35;;;;;;;9.78;97.10;97003.11;1711179;82;20960;-84
2022/01/01 11:38:26;;;;;;;30.00;19.50;;;;;;;9.77;97.07;97007.17;1773065;79;20982;-84
2022/01/01 11:40:59;;;;;;;33.00;18.07;;;;;;;9.78;97.12;97004.89;1771981;80;20961;-85